Time;durP1;ratioP1;P1;durP2;ratioP2;P2;SDS_P1;SDS_P2;PMS_P1;PMS_P2;Temp;Humidity;BMP_temperature;BMP_pressure;BME280_temperature;BME280_humidity;BME280_pressure;Samples;Min_cycle;Max_cycle;Signal;HPM_P1;HPM_P2
2021/07/11 00:02:15;;;;;;;4.07;3.10;;;20.60;69.70;;;;;;5096384;28;20048;-73
2021/07/11 00:04:41;;;;;;;2.83;2.45;;;20.70;69.80;;;;;;5096677;28;20048;-72
2021/07/11 00:07:07;;;;;;;3.45;3.15;;;20.60;69.70;;;;;;5096471;28;20461;-73
2021/07/11 00:09:33;;;;;;;3.70;2.92;;;20.60;69.60;;;;;;5096718;28;20086;-72
2021/07/11 00:11:59;;;;;;;3.25;2.88;;;20.60;69.80;;;;;;5096967;28;20352;-73
2021/07/11 00:14:24;;;;;;;3.42;2.95;;;20.60;69.80;;;;;;5096504;28;20234;-72
2021/07/11 00:16:50;;;;;;;3.50;3.20;;;20.50;69.70;;;;;;5096109;28;20052;-73
2021/07/11 00:19:16;;;;;;;3.95;3.00;;;20.50;69.70;;;;;;5096028;28;20056;-73
2021/07/11 00:21:41;;;;;;;3.33;3.03;;;20.50;69.80;;;;;;5095867;28;20125;-72
2021/07/11 00:24:07;;;;;;;3.47;3.05;;;20.50;69.90;;;;;;5096181;28;20048;-73
2021/07/11 00:26:33;;;;;;;3.13;2.65;;;20.50;69.90;;;;;;5096292;28;20044;-72
2021/07/11 00:28:59;;;;;;;3.22;2.92;;;20.50;70.00;;;;;;5096034;28;20040;-72
2021/07/11 00:31:25;;;;;;;3.72;2.95;;;20.50;70.00;;;;;;5095646;28;20189;-72
2021/07/11 00:33:51;;;;;;;3.35;3.03;;;20.40;70.00;;;;;;5096245;28;20047;-73
2021/07/11 00:36:16;;;;;;;3.28;2.78;;;20.50;70.00;;;;;;5095886;28;20051;-73
2021/07/11 00:38:42;;;;;;;3.03;2.72;;;20.50;70.10;;;;;;5095697;28;20036;-73
2021/07/11 00:41:08;;;;;;;4.22;2.80;;;20.50;70.10;;;;;;5095985;28;20423;-73
2021/07/11 00:43:34;;;;;;;3.30;3.00;;;20.40;70.10;;;;;;5095971;28;20119;-72
2021/07/11 00:46:00;;;;;;;4.05;2.95;;;20.50;70.10;;;;;;5078052;28;20083;-74
2021/07/11 00:48:26;;;;;;;3.90;3.17;;;20.40;70.00;;;;;;5095484;28;20072;-73
2021/07/11 00:50:52;;;;;;;3.55;3.25;;;20.40;69.80;;;;;;5095683;28;20083;-73
2021/07/11 00:53:18;;;;;;;3.97;3.28;;;20.40;70.00;;;;;;5095395;28;20447;-73
2021/07/11 00:55:44;;;;;;;3.03;2.70;;;20.40;70.00;;;;;;5095868;28;20044;-73
2021/07/11 00:58:09;;;;;;;3.10;2.80;;;20.40;69.90;;;;;;5095322;28;20119;-72
2021/07/11 01:00:38;;;;;;;3.60;2.97;;;20.40;70.60;;;;;;5094669;28;20425;-73
2021/07/11 01:03:09;;;;;;;3.30;3.00;;;20.40;70.00;;;;;;5095357;28;20048;-73
2021/07/11 01:05:35;;;;;;;3.60;2.75;;;20.40;70.00;;;;;;5095401;28;20044;-73
2021/07/11 01:08:04;;;;;;;3.28;2.90;;;20.40;70.00;;;;;;5095618;28;20150;-73
2021/07/11 01:10:31;;;;;;;3.58;2.90;;;20.30;69.90;;;;;;5095576;28;20521;-72
2021/07/11 01:12:58;;;;;;;3.05;2.75;;;20.40;70.10;;;;;;5096012;28;20105;-73
2021/07/11 01:15:25;;;;;;;3.30;3.00;;;20.30;70.00;;;;;;5095276;28;20063;-73
2021/07/11 01:17:53;;;;;;;3.03;2.72;;;20.30;69.90;;;;;;5095001;28;20055;-72
2021/07/11 01:20:37;;;;;;;4.75;3.00;;;20.30;70.00;;;;;;5095186;28;20320;-73
2021/07/11 01:23:11;;;;;;;3.85;2.70;;;20.30;69.80;;;;;;5095153;28;20048;-73
2021/07/11 01:25:48;;;;;;;3.47;2.80;;;20.30;70.00;;;;;;5095015;28;20109;-73
2021/07/11 01:28:17;;;;;;;3.75;3.08;;;20.30;70.10;;;;;;5095248;28;20040;-73
2021/07/11 01:30:44;;;;;;;3.22;2.92;;;20.30;70.20;;;;;;5095875;28;20053;-73
2021/07/11 01:33:11;;;;;;;2.90;2.60;;;20.30;70.20;;;;;;5094908;28;20040;-73
2021/07/11 01:35:39;;;;;;;2.92;2.63;;;20.30;70.70;;;;;;5095287;28;20056;-73
2021/07/11 01:38:06;;;;;;;5.75;3.30;;;20.30;70.20;;;;;;5094814;28;20044;-73
2021/07/11 01:40:33;;;;;;;3.40;2.78;;;20.30;70.10;;;;;;5094564;28;20059;-73
2021/07/11 01:43:00;;;;;;;3.72;3.30;;;20.30;70.20;;;;;;5095086;28;20040;-73
2021/07/11 01:45:27;;;;;;;3.15;2.85;;;20.20;70.10;;;;;;5095343;28;20048;-73
2021/07/11 01:47:54;;;;;;;3.22;2.92;;;20.20;70.30;;;;;;5095213;28;20044;-73
2021/07/11 01:50:21;;;;;;;3.28;2.95;;;20.20;70.20;;;;;;5095017;28;20402;-73
2021/07/11 01:52:47;;;;;;;3.13;2.83;;;20.20;70.20;;;;;;5094852;28;20056;-73
2021/07/11 01:55:13;;;;;;;3.28;2.78;;;20.20;70.20;;;;;;5095047;28;20153;-73
2021/07/11 01:57:39;;;;;;;3.50;3.00;;;20.20;70.10;;;;;;5095234;28;20079;-73
2021/07/11 02:00:12;;;;;;;5.30;3.58;;;20.20;70.10;;;;;;5094637;28;20071;-73
2021/07/11 02:02:39;;;;;;;4.00;3.60;;;20.20;69.90;;;;;;5094911;28;20097;-72
2021/07/11 02:05:08;;;;;;;4.22;3.50;;;20.10;69.90;;;;;;5095021;28;20074;-73
2021/07/11 02:07:34;;;;;;;4.68;3.33;;;20.10;70.00;;;;;;5095466;28;20056;-73
2021/07/11 02:10:00;;;;;;;3.38;3.08;;;20.10;70.10;;;;;;5095413;28;20109;-73
2021/07/11 02:12:29;;;;;;;3.45;3.15;;;20.10;70.10;;;;;;5098248;28;20102;-73
2021/07/11 02:14:56;;;;;;;3.05;2.75;;;20.10;70.10;;;;;;5098481;28;20048;-73
2021/07/11 02:17:26;;;;;;;4.57;3.28;;;20.10;70.10;;;;;;5098754;28;20044;-73
2021/07/11 02:19:52;;;;;;;4.13;3.15;;;20.20;70.20;;;;;;5098872;28;20052;-73
2021/07/11 02:22:18;;;;;;;3.35;3.00;;;20.10;70.10;;;;;;5098222;28;20055;-73
2021/07/11 02:24:45;;;;;;;3.55;3.25;;;20.10;70.10;;;;;;5098642;28;20089;-73
2021/07/11 02:27:12;;;;;;;5.20;3.95;;;20.10;70.20;;;;;;5098469;28;20048;-73
2021/07/11 02:29:42;;;;;;;3.53;2.58;;;20.10;70.20;;;;;;5098679;28;20055;-73
2021/07/11 02:32:11;;;;;;;4.95;3.60;;;20.10;70.20;;;;;;5098936;28;20048;-73
2021/07/11 02:34:39;;;;;;;3.85;3.45;;;20.10;70.20;;;;;;5098709;28;20055;-73
2021/07/11 02:37:08;;;;;;;3.60;3.30;;;20.10;70.10;;;;;;5098324;28;20039;-73
2021/07/11 02:39:36;;;;;;;4.05;3.42;;;20.10;70.00;;;;;;5098011;28;20085;-73
2021/07/11 02:42:05;;;;;;;4.38;3.40;;;20.10;70.20;;;;;;5098339;28;20044;-73
2021/07/11 02:44:33;;;;;;;3.35;3.05;;;20.10;70.10;;;;;;5098272;28;20432;-73
2021/07/11 02:47:11;;;;;;;3.53;3.15;;;20.00;70.20;;;;;;5098447;28;20054;-73
2021/07/11 02:49:38;;;;;;;3.60;3.28;;;20.10;69.50;;;;;;5098112;28;20467;-73
2021/07/11 02:52:06;;;;;;;3.40;3.10;;;20.00;70.10;;;;;;5097959;28;20082;-73
2021/07/11 02:55:15;;;;;;;4.03;3.63;;;20.00;70.10;;;;;;5098261;28;20353;-72
2021/07/11 02:57:45;;;;;;;3.60;3.10;;;20.00;69.20;;;;;;4996162;28;20050;-73
2021/07/11 03:00:11;;;;;;;4.07;3.40;;;20.00;70.10;;;;;;5084647;28;20067;-73
2021/07/11 03:02:40;;;;;;;3.95;3.20;;;20.00;70.10;;;;;;5097659;28;20040;-73
2021/07/11 03:05:09;;;;;;;3.58;3.28;;;19.90;70.20;;;;;;5097640;28;20557;-73
2021/07/11 03:07:34;;;;;;;4.95;3.45;;;19.90;70.00;;;;;;5098401;28;20097;-73
2021/07/11 03:10:00;;;;;;;3.65;3.35;;;19.90;70.10;;;;;;5097648;28;20052;-73
2021/07/11 03:12:27;;;;;;;5.53;4.43;;;20.00;70.00;;;;;;5097650;28;20048;-73
2021/07/11 03:14:53;;;;;;;4.55;4.03;;;19.90;70.00;;;;;;5097354;28;20051;-73
2021/07/11 03:17:22;;;;;;;4.38;3.88;;;19.90;69.90;;;;;;5097515;28;20346;-73
2021/07/11 03:19:52;;;;;;;4.55;3.30;;;19.90;70.00;;;;;;5097071;28;20059;-73
2021/07/11 03:22:23;;;;;;;4.53;3.65;;;19.90;70.20;;;;;;5078575;28;20113;-73
2021/07/11 03:24:51;;;;;;;4.65;3.95;;;19.90;70.10;;;;;;5097193;28;20044;-73
2021/07/11 03:27:17;;;;;;;5.43;4.10;;;19.90;70.20;;;;;;5097619;28;20043;-73
2021/07/11 03:30:04;;;;;;;4.72;3.67;;;19.90;70.30;;;;;;5097433;28;20055;-73
2021/07/11 03:32:34;;;;;;;3.72;3.38;;;19.90;69.20;;;;;;5097082;28;20328;-73
2021/07/11 03:35:01;;;;;;;4.78;4.15;;;19.90;70.30;;;;;;5096906;28;20062;-73
2021/07/11 03:37:30;;;;;;;4.25;3.83;;;19.90;70.20;;;;;;5096906;28;20376;-73
2021/07/11 03:39:57;;;;;;;5.18;3.72;;;19.90;70.30;;;;;;5096772;28;20450;-72
2021/07/11 03:42:25;;;;;;;4.32;3.42;;;19.90;70.40;;;;;;5097085;28;20044;-72
2021/07/11 03:44:58;;;;;;;5.03;4.20;;;19.90;70.40;;;;;;5097605;28;20383;-73
2021/07/11 03:47:28;;;;;;;4.93;3.58;;;19.90;70.00;;;;;;5096612;28;20067;-72
2021/07/11 03:49:56;;;;;;;5.00;3.95;;;19.90;70.40;;;;;;5097222;28;20130;-72
2021/07/11 03:52:25;;;;;;;4.40;4.00;;;19.90;70.50;;;;;;5096750;28;20123;-73
2021/07/11 03:54:53;;;;;;;4.05;3.65;;;19.90;70.50;;;;;;5096943;28;20113;-72
2021/07/11 03:57:19;;;;;;;3.70;3.30;;;19.80;70.40;;;;;;5097389;28;20127;-74
2021/07/11 03:59:46;;;;;;;4.65;3.72;;;19.80;70.60;;;;;;5096798;28;20131;-72
2021/07/11 04:02:13;;;;;;;4.72;3.78;;;19.80;70.60;;;;;;5096412;28;20048;-73
2021/07/11 04:04:40;;;;;;;4.25;3.85;;;19.80;70.50;;;;;;5078569;28;20052;-73
2021/07/11 04:07:08;;;;;;;4.43;4.00;;;19.80;70.50;;;;;;5096693;28;20093;-73
2021/07/11 04:09:35;;;;;;;3.95;3.33;;;19.80;70.50;;;;;;5096710;28;20094;-73
2021/07/11 04:12:01;;;;;;;4.68;4.07;;;19.80;70.60;;;;;;5096019;28;20119;-73
2021/07/11 04:14:27;;;;;;;4.30;3.88;;;19.80;70.50;;;;;;5078322;28;20058;-73
2021/07/11 04:17:07;;;;;;;4.10;3.60;;;19.80;70.60;;;;;;5096218;28;20044;-73
2021/07/11 04:19:36;;;;;;;4.28;3.47;;;19.90;70.40;;;;;;5096133;28;20094;-72
2021/07/11 04:22:02;;;;;;;3.72;3.42;;;19.80;70.50;;;;;;5096315;28;20128;-72
2021/07/11 04:24:29;;;;;;;3.60;2.90;;;19.90;70.70;;;;;;5096775;28;20118;-73
2021/07/11 04:26:56;;;;;;;3.63;3.20;;;19.90;70.70;;;;;;5096438;28;20125;-72
2021/07/11 04:29:23;;;;;;;5.78;3.35;;;20.00;70.70;;;;;;5095431;28;20044;-72
2021/07/11 04:31:49;;;;;;;3.40;2.97;;;20.00;70.50;;;;;;5095774;28;20126;-71
2021/07/11 04:34:26;;;;;;;3.70;3.25;;;20.10;70.60;;;;;;5095579;28;20141;-73
2021/07/11 04:36:53;;;;;;;3.85;2.85;;;20.10;71.00;;;;;;5096747;28;20117;-78
2021/07/11 04:39:19;;;;;;;7.65;6.93;;;20.10;70.40;;;;;;5096081;28;20071;-78
2021/07/11 04:41:45;;;;;;;8.93;8.02;;;20.20;69.90;;;;;;5095695;28;20447;-79
2021/07/11 04:44:12;;;;;;;11.57;7.50;;;20.20;69.00;;;;;;5095673;28;20048;-78
2021/07/11 04:46:42;;;;;;;9.50;7.10;;;20.10;68.60;;;;;;5096174;28;20079;-76
2021/07/11 04:49:10;;;;;;;10.93;6.80;;;20.10;68.50;;;;;;5095940;28;20055;-74
2021/07/11 04:51:36;;;;;;;13.02;6.38;;;20.10;68.70;;;;;;5095545;28;20070;-75
2021/07/11 04:54:04;;;;;;;6.28;5.38;;;20.10;68.90;;;;;;5096049;28;20093;-71
2021/07/11 04:56:30;;;;;;;7.43;5.00;;;20.10;69.20;;;;;;5095356;28;20051;-72
2021/07/11 04:58:57;;;;;;;10.07;5.00;;;20.20;69.30;;;;;;5093899;28;20062;-72
2021/07/11 05:01:23;;;;;;;9.77;5.05;;;20.20;69.60;;;;;;5094073;28;20423;-73
2021/07/11 05:03:49;;;;;;;8.02;4.80;;;20.20;69.70;;;;;;5093465;28;20044;-76
2021/07/11 05:06:15;;;;;;;10.63;5.63;;;20.30;69.90;;;;;;5093797;28;20040;-72
2021/07/11 05:08:41;;;;;;;10.77;7.03;;;20.30;69.90;;;;;;5088608;28;20059;-73
2021/07/11 05:11:07;;;;;;;9.00;6.95;;;20.30;69.60;;;;;;5093524;28;20040;-74
2021/07/11 05:13:33;;;;;;;9.15;7.53;;;20.30;69.20;;;;;;5095130;28;20052;-71
2021/07/11 05:15:59;;;;;;;9.20;6.30;;;20.40;69.00;;;;;;5095249;28;20074;-71
2021/07/11 05:18:26;;;;;;;18.42;6.55;;;20.40;69.10;;;;;;5094862;28;20071;-73
2021/07/11 05:20:53;;;;;;;11.77;6.30;;;20.40;69.60;;;;;;5095261;28;20459;-77
2021/07/11 05:23:18;;;;;;;17.23;5.95;;;20.40;70.00;;;;;;5094739;28;20054;-74
2021/07/11 05:25:44;;;;;;;17.27;5.47;;;20.40;70.40;;;;;;5094874;28;20032;-78
2021/07/11 05:28:10;;;;;;;8.75;4.22;;;20.40;70.40;;;;;;5094113;28;20102;-73
2021/07/11 05:30:36;;;;;;;8.32;4.40;;;20.40;70.40;;;;;;5094503;28;20040;-72
2021/07/11 05:33:02;;;;;;;17.80;5.38;;;20.50;70.70;;;;;;5095387;28;20052;-72
2021/07/11 05:35:28;;;;;;;8.80;5.90;;;20.50;71.10;;;;;;5094983;28;20072;-73
2021/07/11 05:37:54;;;;;;;8.50;6.18;;;20.50;70.70;;;;;;5094735;28;20087;-74
2021/07/11 05:40:21;;;;;;;10.70;6.18;;;20.50;70.50;;;;;;5094792;28;20098;-75
2021/07/11 05:42:47;;;;;;;11.18;5.10;;;20.50;70.40;;;;;;5094964;28;20470;-76
2021/07/11 05:45:13;;;;;;;9.48;5.13;;;20.50;70.50;;;;;;5096060;28;20048;-75
2021/07/11 05:47:39;;;;;;;6.95;5.43;;;20.50;70.60;;;;;;5099429;28;20474;-75
2021/07/11 05:50:07;;;;;;;8.68;5.28;;;20.50;70.60;;;;;;5098917;28;20136;-75
2021/07/11 05:52:33;;;;;;;13.27;5.93;;;20.50;70.80;;;;;;5098721;28;20066;-79
2021/07/11 05:54:59;;;;;;;7.55;6.50;;;20.50;71.00;;;;;;5098756;28;20040;-75
2021/07/11 05:57:27;;;;;;;8.32;6.05;;;20.40;71.20;;;;;;5098813;28;20077;-75
2021/07/11 05:59:55;;;;;;;6.85;6.15;;;20.40;71.40;;;;;;5098913;28;20048;-75
2021/07/11 06:02:21;;;;;;;7.35;5.93;;;20.40;71.60;;;;;;5098921;28;20050;-73
2021/07/11 06:04:47;;;;;;;7.85;6.05;;;20.40;71.90;;;;;;5098744;28;20040;-74
2021/07/11 06:07:13;;;;;;;7.35;5.38;;;20.30;72.10;;;;;;5098622;28;20126;-75
2021/07/11 06:09:39;;;;;;;7.07;5.70;;;20.30;72.20;;;;;;5098846;28;20102;-75
2021/07/11 06:12:05;;;;;;;7.45;6.53;;;20.30;72.30;;;;;;5098710;28;20181;-74
2021/07/11 06:14:31;;;;;;;7.47;6.78;;;20.30;72.40;;;;;;5098690;28;20040;-73
2021/07/11 06:16:57;;;;;;;7.65;6.30;;;20.30;72.60;;;;;;5098662;28;20051;-73
2021/07/11 06:19:22;;;;;;;7.13;5.60;;;20.20;72.80;;;;;;5098700;28;20077;-74
2021/07/11 06:21:49;;;;;;;12.15;5.85;;;20.20;73.00;;;;;;5098734;28;20379;-72
2021/07/11 06:24:15;;;;;;;9.63;5.88;;;20.20;73.00;;;;;;5098884;28;20042;-74
2021/07/11 06:26:42;;;;;;;11.27;5.75;;;20.30;73.00;;;;;;5098508;28;20054;-74
2021/07/11 06:29:08;;;;;;;9.05;6.15;;;20.30;73.00;;;;;;5098310;28;20040;-74
2021/07/11 06:31:34;;;;;;;8.35;5.03;;;20.30;72.80;;;;;;5098641;28;20044;-75
2021/07/11 06:34:00;;;;;;;11.25;5.18;;;20.40;72.70;;;;;;5098452;28;20048;-75
2021/07/11 06:36:27;;;;;;;11.55;6.43;;;20.40;72.60;;;;;;5098428;28;20430;-79
2021/07/11 06:38:53;;;;;;;15.65;6.63;;;20.40;72.80;;;;;;5097941;28;20032;-77
2021/07/11 06:41:19;;;;;;;7.95;5.30;;;20.40;72.80;;;;;;5097854;28;20043;-79
2021/07/11 06:43:44;;;;;;;9.40;5.35;;;20.50;73.00;;;;;;5080523;28;20059;-77
2021/07/11 06:46:10;;;;;;;9.63;5.28;;;20.50;72.80;;;;;;5098144;28;20044;-78
2021/07/11 06:48:38;;;;;;;10.38;4.68;;;20.50;73.00;;;;;;5097866;28;20118;-77
2021/07/11 06:51:04;;;;;;;11.93;4.93;;;20.60;73.00;;;;;;5097669;28;20048;-78
2021/07/11 06:53:30;;;;;;;7.18;4.88;;;20.60;72.90;;;;;;5098136;28;20051;-78
2021/07/11 06:55:55;;;;;;;10.63;4.43;;;20.60;73.00;;;;;;5097620;28;20363;-76
2021/07/11 06:58:22;;;;;;;13.02;4.93;;;20.60;73.30;;;;;;5096914;28;20514;-76
2021/07/11 07:00:48;;;;;;;13.88;4.80;;;20.70;73.40;;;;;;5097714;28;20444;-74
2021/07/11 07:03:13;;;;;;;10.00;4.10;;;20.70;73.30;;;;;;5098393;28;20051;-73
2021/07/11 07:05:39;;;;;;;7.45;4.28;;;20.70;73.20;;;;;;5097171;28;20048;-74
2021/07/11 07:08:05;;;;;;;7.45;3.85;;;20.70;73.20;;;;;;5097861;28;20075;-74
2021/07/11 07:10:31;;;;;;;7.50;3.30;;;20.80;73.20;;;;;;5097523;28;20104;-73
2021/07/11 07:12:57;;;;;;;7.47;3.47;;;20.80;73.20;;;;;;5097578;28;20388;-74
2021/07/11 07:15:23;;;;;;;5.15;3.75;;;20.90;73.30;;;;;;5097723;28;20055;-74
2021/07/11 07:17:49;;;;;;;6.38;3.38;;;20.90;73.30;;;;;;5097298;28;20114;-74
2021/07/11 07:20:15;;;;;;;5.28;2.70;;;20.90;73.30;;;;;;5097552;28;20135;-74
2021/07/11 07:22:41;;;;;;;6.35;2.92;;;20.90;73.30;;;;;;5097321;28;20039;-74
2021/07/11 07:25:10;;;;;;;7.07;2.88;;;20.90;73.30;;;;;;5097443;28;20055;-74
2021/07/11 07:27:36;;;;;;;4.65;2.67;;;21.00;73.30;;;;;;5097459;28;20050;-74
2021/07/11 07:30:03;;;;;;;6.47;2.72;;;21.00;73.30;;;;;;5097441;28;20040;-74
2021/07/11 07:32:29;;;;;;;4.00;2.78;;;21.00;73.30;;;;;;5097942;28;20089;-74
2021/07/11 07:34:55;;;;;;;6.35;2.60;;;21.00;73.30;;;;;;5097101;28;20114;-74
2021/07/11 07:37:20;;;;;;;4.65;2.38;;;21.10;73.30;;;;;;5097573;28;20040;-74
2021/07/11 07:39:47;;;;;;;3.83;2.85;;;21.10;73.30;;;;;;5097076;28;20133;-74
2021/07/11 07:42:13;;;;;;;4.97;2.67;;;21.10;73.20;;;;;;5097336;28;20117;-74
2021/07/11 07:44:38;;;;;;;4.05;2.40;;;21.10;73.30;;;;;;5097260;28;20469;-74
2021/07/11 07:47:04;;;;;;;4.97;2.47;;;21.10;73.20;;;;;;5096808;28;20047;-74
2021/07/11 07:49:31;;;;;;;2.75;2.30;;;21.20;73.30;;;;;;5096695;28;20467;-74
2021/07/11 07:51:57;;;;;;;3.03;2.13;;;21.20;73.30;;;;;;5096752;28;20135;-74
2021/07/11 07:54:22;;;;;;;2.83;2.13;;;21.20;73.30;;;;;;5096712;28;20047;-74
2021/07/11 07:56:48;;;;;;;4.07;2.25;;;21.20;73.30;;;;;;5097039;28;20051;-74
2021/07/11 07:59:14;;;;;;;5.05;2.35;;;21.20;73.20;;;;;;5097117;28;20040;-74
2021/07/11 08:01:41;;;;;;;3.92;2.10;;;21.20;73.20;;;;;;5097294;28;20047;-74
2021/07/11 08:04:07;;;;;;;5.10;2.20;;;21.20;73.20;;;;;;5096492;28;20093;-74
2021/07/11 08:06:33;;;;;;;4.13;1.90;;;21.20;73.20;;;;;;5096273;28;20106;-74
2021/07/11 08:08:59;;;;;;;3.40;1.95;;;21.30;73.20;;;;;;5096229;28;20044;-74
2021/07/11 08:11:26;;;;;;;3.42;2.53;;;21.30;73.30;;;;;;5096526;28;20135;-74
2021/07/11 08:13:52;;;;;;;3.45;2.35;;;21.30;73.20;;;;;;5096726;28;20089;-74
2021/07/11 08:16:18;;;;;;;3.08;2.47;;;21.30;73.20;;;;;;5096412;28;20051;-74
2021/07/11 08:18:44;;;;;;;3.78;2.35;;;21.30;73.20;;;;;;5095999;28;20086;-74
2021/07/11 08:21:10;;;;;;;4.40;2.60;;;21.30;73.20;;;;;;5096663;28;20447;-74
2021/07/11 08:23:36;;;;;;;4.78;2.67;;;21.40;73.30;;;;;;5096696;28;20047;-74
2021/07/11 08:26:02;;;;;;;2.72;2.10;;;21.40;73.30;;;;;;5096118;28;20058;-74
2021/07/11 08:28:28;;;;;;;5.63;2.30;;;21.40;73.30;;;;;;5096455;28;20043;-74
2021/07/11 08:30:54;;;;;;;3.05;1.95;;;21.30;73.20;;;;;;5096350;28;20044;-74
2021/07/11 08:33:19;;;;;;;4.15;1.75;;;21.40;73.20;;;;;;5095980;28;20359;-74
2021/07/11 08:35:46;;;;;;;4.20;2.25;;;21.40;73.20;;;;;;5095821;28;20069;-74
2021/07/11 08:38:12;;;;;;;4.00;2.25;;;21.40;73.20;;;;;;5078227;28;20423;-74
2021/07/11 08:40:38;;;;;;;2.90;2.03;;;21.40;73.20;;;;;;5096179;28;20044;-74
2021/07/11 08:43:08;;;;;;;2.38;1.98;;;21.40;73.20;;;;;;5096293;28;20054;-74
2021/07/11 08:45:35;;;;;;;2.38;1.90;;;21.40;73.10;;;;;;5096125;28;20112;-74
2021/07/11 08:48:02;;;;;;;3.17;2.08;;;21.40;73.10;;;;;;5095958;28;20110;-74
2021/07/11 08:50:32;;;;;;;3.42;2.17;;;21.40;73.10;;;;;;5096265;28;20068;-73
2021/07/11 08:52:58;;;;;;;2.20;2.00;;;21.40;73.00;;;;;;5095848;28;20052;-74
2021/07/11 08:55:25;;;;;;;3.50;2.20;;;21.40;73.00;;;;;;5095186;28;20040;-74
2021/07/11 08:57:54;;;;;;;2.90;2.13;;;21.40;73.00;;;;;;5095702;28;20047;-75
2021/07/11 09:00:35;;;;;;;3.75;1.77;;;21.40;72.90;;;;;;5095842;28;20040;-74
2021/07/11 09:03:03;;;;;;;5.00;2.42;;;21.40;72.90;;;;;;5095853;28;20044;-74
2021/07/11 09:05:36;;;;;;;2.72;2.28;;;21.40;72.90;;;;;;5095161;28;20448;-74
2021/07/11 09:08:12;;;;;;;1.95;1.75;;;21.40;72.90;;;;;;5095678;28;20043;-74
2021/07/11 09:10:48;;;;;;;1.88;1.70;;;21.40;72.80;;;;;;5096036;28;20044;-74
2021/07/11 09:13:17;;;;;;;3.45;2.15;;;21.50;72.80;;;;;;5095865;28;20055;-74
2021/07/11 09:15:47;;;;;;;2.13;1.90;;;21.40;72.80;;;;;;5095700;28;20044;-74
2021/07/11 09:18:29;;;;;;;2.17;1.98;;;21.50;72.90;;;;;;5095522;28;20056;-74
2021/07/11 09:20:57;;;;;;;;;;;21.50;72.80;;;;;;5094992;28;20043;-74
2021/07/11 09:23:25;;;;;;;2.47;2.22;;;21.40;72.70;;;;;;5095651;28;19948;-74
2021/07/11 09:26:04;;;;;;;2.33;2.00;;;21.50;72.80;;;;;;5095843;28;20036;-74
2021/07/11 09:28:32;;;;;;;3.58;2.20;;;21.50;72.80;;;;;;5095420;28;20051;-74
2021/07/11 09:31:13;;;;;;;2.78;2.08;;;21.50;72.80;;;;;;5095739;28;20505;-74
2021/07/11 09:33:41;;;;;;;2.92;2.15;;;21.50;72.80;;;;;;5095275;28;20056;-74
2021/07/11 09:36:19;;;;;;;1.83;1.73;;;21.50;72.80;;;;;;5095085;28;20115;-74
2021/07/11 09:38:50;;;;;;;2.10;1.90;;;21.50;72.70;;;;;;5095617;28;20080;-74
2021/07/11 09:41:28;;;;;;;2.30;2.10;;;21.50;72.70;;;;;;5095337;28;20055;-74
2021/07/11 09:43:58;;;;;;;2.42;2.13;;;21.50;72.70;;;;;;5094913;28;20044;-74
2021/07/11 09:46:25;;;;;;;2.40;2.10;;;21.50;72.70;;;;;;5095320;28;20066;-74
2021/07/11 09:48:52;;;;;;;3.05;2.20;;;21.50;72.70;;;;;;5095565;28;20194;-75
2021/07/11 09:51:24;;;;;;;2.35;2.15;;;21.50;72.70;;;;;;5095676;28;20083;-74
2021/07/11 09:53:51;;;;;;;3.47;2.33;;;21.50;72.60;;;;;;5095351;28;20051;-74
2021/07/11 09:56:43;;;;;;;2.50;2.30;;;21.60;72.70;;;;;;5094952;28;20344;-74
2021/07/11 09:59:12;;;;;;;5.18;2.30;;;21.60;72.80;;;;;;5094784;28;20123;-74
2021/07/11 10:01:41;;;;;;;2.67;1.80;;;21.60;72.70;;;;;;5094681;28;20125;-74
2021/07/11 10:04:07;;;;;;;2.63;2.42;;;21.60;72.70;;;;;;5094980;28;20043;-74
2021/07/11 10:06:35;;;;;;;2.58;2.30;;;21.60;72.70;;;;;;5095241;28;20123;-74
2021/07/11 10:09:03;;;;;;;2.85;2.40;;;21.60;72.70;;;;;;5094851;28;20051;-74
2021/07/11 10:11:28;;;;;;;2.72;2.17;;;21.60;72.80;;;;;;5095143;28;20040;-74
2021/07/11 10:13:54;;;;;;;2.42;2.08;;;21.60;72.70;;;;;;5094286;28;20054;-74
2021/07/11 10:16:24;;;;;;;2.78;2.50;;;21.60;72.70;;;;;;5095048;28;20036;-74
2021/07/11 10:18:55;;;;;;;2.38;2.15;;;21.60;72.80;;;;;;5094957;28;20131;-74
2021/07/11 10:21:30;;;;;;;2.90;2.28;;;21.60;72.80;;;;;;5094484;28;20048;-74
2021/07/11 10:23:56;;;;;;;3.15;2.30;;;21.60;73.30;;;;;;5095017;28;20056;-74
2021/07/11 10:26:23;;;;;;;2.85;2.00;;;21.60;72.70;;;;;;5094696;28;20047;-74
2021/07/11 10:28:50;;;;;;;2.70;2.50;;;21.60;72.80;;;;;;5094943;28;20068;-74
2021/07/11 10:31:25;;;;;;;2.67;2.30;;;21.70;72.80;;;;;;5095543;28;20044;-74
2021/07/11 10:33:53;;;;;;;2.65;2.45;;;21.70;72.80;;;;;;5098333;28;20040;-74
2021/07/11 10:36:39;;;;;;;2.60;2.40;;;21.70;72.80;;;;;;5098585;28;20044;-74
2021/07/11 10:39:08;;;;;;;2.08;1.88;;;21.70;72.80;;;;;;5098369;28;20055;-74
2021/07/11 10:41:44;;;;;;;2.40;2.20;;;21.70;72.80;;;;;;5098288;28;20096;-74
2021/07/11 10:44:22;;;;;;;2.88;2.45;;;21.70;72.80;;;;;;5098136;28;20082;-75
2021/07/11 10:46:58;;;;;;;2.33;2.13;;;21.70;72.80;;;;;;5097672;28;20044;-74
2021/07/11 10:49:27;;;;;;;3.13;2.58;;;21.70;72.80;;;;;;5098159;28;20321;-74
2021/07/11 10:52:07;;;;;;;2.60;2.40;;;21.70;72.80;;;;;;5098614;28;20123;-74
2021/07/11 10:54:32;;;;;;;2.90;2.45;;;21.70;72.80;;;;;;5098384;28;20056;-75
2021/07/11 10:57:01;;;;;;;4.07;2.30;;;21.70;72.70;;;;;;5097870;28;20044;-74
2021/07/11 10:59:30;;;;;;;2.88;2.40;;;21.70;72.70;;;;;;5097712;28;20051;-74
2021/07/11 11:01:57;;;;;;;2.40;2.20;;;21.70;72.70;;;;;;5097924;28;20051;-74
2021/07/11 11:04:23;;;;;;;2.33;2.13;;;21.70;72.70;;;;;;5097627;28;20044;-74
2021/07/11 11:06:50;;;;;;;2.88;2.17;;;21.70;72.70;;;;;;5097846;28;20044;-74
2021/07/11 11:09:37;;;;;;;2.75;2.40;;;21.70;72.60;;;;;;5097546;28;20051;-74
2021/07/11 11:12:25;;;;;;;2.47;2.17;;;21.70;72.60;;;;;;5097323;28;20406;-74
2021/07/11 11:14:58;;;;;;;2.80;2.60;;;21.70;72.60;;;;;;5079622;28;20052;-74
2021/07/11 11:17:34;;;;;;;2.33;2.03;;;21.70;72.60;;;;;;5097708;28;20152;-74
2021/07/11 11:20:06;;;;;;;2.33;2.13;;;21.70;72.50;;;;;;5097390;28;20105;-74
2021/07/11 11:22:33;;;;;;;3.55;2.35;;;21.70;72.50;;;;;;5098308;28;20060;-74
2021/07/11 11:24:59;;;;;;;2.65;2.45;;;21.80;72.60;;;;;;5097696;28;20123;-74
2021/07/11 11:27:37;;;;;;;2.40;2.20;;;21.70;72.50;;;;;;5097478;28;20079;-74
2021/07/11 11:30:19;;;;;;;2.80;2.45;;;21.80;72.50;;;;;;5097417;28;20056;-75
2021/07/11 11:32:54;;;;;;;2.40;2.20;;;21.70;72.50;;;;;;5097039;28;20595;-74
2021/07/11 11:35:22;;;;;;;2.55;2.35;;;21.80;73.10;;;;;;5096952;28;20052;-74
2021/07/11 11:37:50;;;;;;;2.35;2.15;;;21.80;72.50;;;;;;5097451;28;20046;-75
2021/07/11 11:40:18;;;;;;;2.35;2.15;;;21.80;72.40;;;;;;5097206;28;20044;-74
2021/07/11 11:42:50;;;;;;;2.70;2.28;;;21.80;72.40;;;;;;5096690;28;20044;-74
2021/07/11 11:45:18;;;;;;;2.55;2.35;;;21.80;72.40;;;;;;5097218;28;20044;-74
2021/07/11 11:47:44;;;;;;;2.47;2.28;;;21.80;72.40;;;;;;5096738;28;20040;-74
2021/07/11 11:50:19;;;;;;;2.42;2.22;;;21.80;72.40;;;;;;5097012;28;20105;-74
2021/07/11 11:52:46;;;;;;;2.72;2.42;;;21.80;72.40;;;;;;5097534;28;20194;-73
2021/07/11 11:55:13;;;;;;;2.47;2.28;;;21.80;72.40;;;;;;5097023;28;20054;-74
2021/07/11 11:57:41;;;;;;;2.67;2.28;;;21.80;72.40;;;;;;5096264;28;20036;-74
2021/07/11 12:00:14;;;;;;;2.55;2.35;;;21.80;72.40;;;;;;5096290;28;20047;-74
2021/07/11 12:02:40;;;;;;;2.45;2.25;;;21.80;72.40;;;;;;5096762;28;20171;-74
2021/07/11 12:05:08;;;;;;;2.92;2.72;;;21.80;72.40;;;;;;5096775;28;20363;-74
2021/07/11 12:07:34;;;;;;;2.30;2.10;;;21.80;72.40;;;;;;5096803;28;20078;-74
2021/07/11 12:10:00;;;;;;;2.38;2.17;;;21.80;72.40;;;;;;5096088;28;20044;-74
2021/07/11 12:12:25;;;;;;;2.38;2.17;;;21.80;72.40;;;;;;5096728;28;20052;-74
2021/07/11 12:14:51;;;;;;;2.85;2.55;;;21.80;72.40;;;;;;5096668;28;20499;-74
2021/07/11 12:17:17;;;;;;;2.72;2.30;;;21.90;72.50;;;;;;5096401;28;20469;-74
2021/07/11 12:19:50;;;;;;;2.92;2.63;;;21.80;72.50;;;;;;5096307;28;20056;-74
2021/07/11 12:22:21;;;;;;;3.00;2.70;;;21.80;72.40;;;;;;5096110;28;20055;-75
2021/07/11 12:24:59;;;;;;;2.95;2.75;;;21.90;72.50;;;;;;5095756;28;20282;-74
2021/07/11 12:27:27;;;;;;;2.92;2.40;;;21.80;72.40;;;;;;5096217;28;20044;-74
2021/07/11 12:30:03;;;;;;;2.60;2.40;;;21.90;72.50;;;;;;5096314;28;20119;-74
2021/07/11 12:32:42;;;;;;;2.47;2.28;;;21.90;72.50;;;;;;5096807;28;20056;-75
2021/07/11 12:35:08;;;;;;;3.10;2.28;;;21.90;72.50;;;;;;5095943;28;20097;-75
2021/07/11 12:37:34;;;;;;;2.83;2.60;;;21.90;72.50;;;;;;5096287;28;20050;-74
2021/07/11 12:40:00;;;;;;;2.53;2.33;;;21.90;72.40;;;;;;5096426;28;20436;-74
2021/07/11 12:42:26;;;;;;;2.60;2.40;;;21.90;72.40;;;;;;5096136;28;20052;-74
2021/07/11 12:44:52;;;;;;;3.20;2.67;;;21.90;72.50;;;;;;5096185;28;20055;-74
2021/07/11 12:47:19;;;;;;;2.38;2.17;;;21.90;72.40;;;;;;5095643;28;20463;-75
2021/07/11 12:49:52;;;;;;;3.17;1.90;;;21.90;72.50;;;;;;5095572;28;20055;-75
2021/07/11 12:52:19;;;;;;;2.47;2.20;;;21.90;72.50;;;;;;5095594;28;20127;-74